Time;durP1;ratioP1;P1;durP2;ratioP2;P2;SDS_P1;SDS_P2;PMS_P1;PMS_P2;Temp;Humidity;BMP_temperature;BMP_pressure;BME280_temperature;BME280_humidity;BME280_pressure;Samples;Min_cycle;Max_cycle;Signal;HPM_P1;HPM_P2
2021/11/03 00:01:21;;;;;;;20.47;16.40;;;8.10;99.90;;;;;;5027560;28;20711;-63
2021/11/03 00:03:51;;;;;;;20.77;17.40;;;8.10;99.90;;;;;;5027388;28;20237;-63
2021/11/03 00:06:21;;;;;;;20.53;17.53;;;8.00;99.90;;;;;;5028320;28;20283;-64
2021/11/03 00:08:50;;;;;;;21.83;16.97;;;8.00;99.90;;;;;;5029124;28;20330;-63
2021/11/03 00:11:21;;;;;;;21.43;16.80;;;8.10;99.90;;;;;;5029150;28;20232;-63
2021/11/03 00:13:49;;;;;;;18.90;16.63;;;8.00;99.90;;;;;;5029161;28;20282;-64
2021/11/03 00:16:17;;;;;;;18.33;16.37;;;7.90;99.90;;;;;;5029259;28;20232;-63
2021/11/03 00:18:46;;;;;;;20.17;17.03;;;7.90;99.90;;;;;;5029485;28;20244;-63
2021/11/03 00:21:15;;;;;;;19.80;16.23;;;7.90;99.90;;;;;;5029460;28;20275;-63
2021/11/03 00:23:45;;;;;;;19.77;16.67;;;8.00;99.90;;;;;;5029296;28;20602;-63
2021/11/03 00:26:13;;;;;;;20.73;18.23;;;8.10;99.90;;;;;;5028979;28;20256;-63
2021/11/03 00:28:43;;;;;;;21.70;17.60;;;7.90;99.90;;;;;;5029192;28;20351;-64
2021/11/03 00:31:11;;;;;;;22.80;18.20;;;8.00;99.90;;;;;;5029409;28;20260;-63
2021/11/03 00:33:39;;;;;;;22.67;18.90;;;7.90;99.90;;;;;;5029532;28;20316;-63
2021/11/03 00:36:08;;;;;;;22.37;17.67;;;8.00;99.90;;;;;;5029311;28;20240;-63
2021/11/03 00:38:36;;;;;;;21.67;17.67;;;8.00;99.90;;;;;;5027894;28;20248;-63
2021/11/03 00:41:06;;;;;;;23.40;19.30;;;8.20;99.90;;;;;;5026140;28;20483;-62
2021/11/03 00:43:36;;;;;;;23.77;17.57;;;8.00;99.90;;;;;;5027355;28;20244;-63
2021/11/03 00:46:06;;;;;;;21.40;18.40;;;8.10;99.90;;;;;;5029296;28;20711;-63
2021/11/03 00:48:35;;;;;;;17.93;16.00;;;8.00;99.90;;;;;;5027183;28;20228;-63
2021/11/03 00:51:04;;;;;;;18.17;15.43;;;8.00;99.90;;;;;;5027488;28;20692;-63
2021/11/03 00:53:33;;;;;;;18.90;15.80;;;8.00;99.90;;;;;;5029043;28;20254;-63
2021/11/03 00:56:04;;;;;;;18.40;16.00;;;8.00;99.90;;;;;;5029298;28;20565;-63
2021/11/03 00:58:33;;;;;;;18.60;15.80;;;8.10;99.90;;;;;;5018568;28;20689;-63
2021/11/03 01:01:01;;;;;;;19.30;14.57;;;8.00;99.90;;;;;;5026832;28;20968;-63
2021/11/03 01:03:31;;;;;;;18.67;15.47;;;8.00;99.90;;;;;;5017173;28;20658;-63
2021/11/03 01:06:00;;;;;;;16.73;14.90;;;8.00;99.90;;;;;;5028569;28;20315;-63
2021/11/03 01:08:28;;;;;;;16.27;14.10;;;7.90;99.90;;;;;;5020111;28;20232;-63
2021/11/03 01:10:56;;;;;;;21.47;15.00;;;7.90;99.90;;;;;;5028363;28;20324;-63
2021/11/03 01:13:27;;;;;;;16.77;14.43;;;7.80;99.90;;;;;;5026653;28;20233;-63
2021/11/03 01:15:57;;;;;;;17.97;13.67;;;7.80;99.90;;;;;;5027198;28;20584;-63
2021/11/03 01:18:27;;;;;;;16.90;15.10;;;7.90;99.90;;;;;;5028290;28;20240;-63
2021/11/03 01:20:58;;;;;;;18.50;14.40;;;7.90;99.90;;;;;;5028473;28;20316;-63
2021/11/03 01:23:27;;;;;;;20.10;14.40;;;7.80;99.90;;;;;;5019010;28;20244;-63
2021/11/03 01:25:55;;;;;;;16.13;13.20;;;7.90;99.90;;;;;;5029864;28;20228;-63
2021/11/03 01:28:24;;;;;;;16.37;14.60;;;7.90;99.90;;;;;;5028049;28;20319;-63
2021/11/03 01:30:52;;;;;;;18.63;14.40;;;7.90;99.90;;;;;;5027815;28;20233;-63
2021/11/03 01:33:22;;;;;;;18.57;14.10;;;7.90;99.90;;;;;;5026823;28;20263;-63
2021/11/03 01:35:51;;;;;;;16.40;12.57;;;7.90;99.90;;;;;;5021765;28;20604;-64
2021/11/03 01:38:21;;;;;;;13.97;12.47;;;7.80;99.90;;;;;;5026818;28;20256;-63
2021/11/03 01:40:50;;;;;;;13.77;12.37;;;7.80;99.90;;;;;;5020485;28;20232;-63
2021/11/03 01:43:35;;;;;;;14.07;12.07;;;7.80;99.90;;;;;;5026757;28;20284;-63
2021/11/03 01:46:19;;;;;;;15.07;12.93;;;7.80;99.90;;;;;;5038924;28;20248;-64
2021/11/03 01:48:55;;;;;;;15.23;13.17;;;7.70;99.90;;;;;;5026918;28;20232;-62
2021/11/03 01:51:29;;;;;;;13.97;12.47;;;7.80;99.90;;;;;;5023283;28;20237;-63
2021/11/03 01:54:00;;;;;;;16.70;12.57;;;7.80;99.90;;;;;;5025171;28;20259;-63
2021/11/03 01:56:29;;;;;;;16.27;12.77;;;7.90;99.90;;;;;;5024827;28;20232;-63
2021/11/03 01:59:03;;;;;;;16.43;12.30;;;7.80;99.90;;;;;;5026494;28;20236;-63
2021/11/03 02:01:31;;;;;;;14.77;12.63;;;7.70;99.90;;;;;;5017133;28;20599;-63
2021/11/03 02:04:00;;;;;;;15.00;12.50;;;7.70;99.90;;;;;;5015214;28;20312;-64
2021/11/03 02:06:29;;;;;;;17.27;13.57;;;7.70;99.90;;;;;;5016947;28;20239;-63
2021/11/03 02:08:59;;;;;;;16.77;12.90;;;7.70;99.90;;;;;;5026104;28;20336;-63
2021/11/03 02:11:29;;;;;;;15.33;12.57;;;7.60;99.90;;;;;;5024309;28;20331;-63
2021/11/03 02:14:02;;;;;;;14.33;12.57;;;7.60;99.90;;;;;;5026146;28;20232;-63
2021/11/03 02:16:33;;;;;;;17.03;13.77;;;7.60;99.90;;;;;;5017488;28;20290;-63
2021/11/03 02:19:04;;;;;;;15.30;12.90;;;7.60;99.90;;;;;;5023420;28;20245;-63
2021/11/03 02:21:38;;;;;;;16.37;13.10;;;7.60;99.90;;;;;;5018499;28;20240;-63
2021/11/03 02:24:15;;;;;;;16.93;13.67;;;7.60;99.90;;;;;;5021189;28;20295;-63
2021/11/03 02:26:49;;;;;;;16.40;13.33;;;7.60;99.90;;;;;;5017499;28;20260;-63
2021/11/03 02:29:20;;;;;;;18.30;14.07;;;7.70;99.90;;;;;;5040825;28;20248;-63
2021/11/03 02:31:52;;;;;;;16.07;13.47;;;7.60;99.90;;;;;;5025582;28;20232;-63
2021/11/03 02:34:23;;;;;;;15.07;12.43;;;7.50;99.90;;;;;;5025129;28;20249;-63
2021/11/03 02:36:56;;;;;;;16.07;12.60;;;7.60;99.90;;;;;;5025824;28;20447;-63
2021/11/03 02:39:32;;;;;;;15.00;12.53;;;7.50;99.90;;;;;;5025274;28;20784;-63
2021/11/03 02:42:02;;;;;;;17.60;14.23;;;7.70;99.90;;;;;;5026988;28;20244;-62
2021/11/03 02:44:34;;;;;;;15.87;12.93;;;7.60;99.90;;;;;;5026902;28;20255;-63
2021/11/03 02:47:03;;;;;;;16.63;12.67;;;7.60;99.90;;;;;;5025769;28;20232;-62
2021/11/03 02:49:31;;;;;;;17.03;13.83;;;7.60;99.90;;;;;;5020754;28;20268;-63
2021/11/03 02:52:00;;;;;;;14.43;12.50;;;7.60;99.90;;;;;;5026738;28;20686;-63
2021/11/03 02:54:28;;;;;;;13.93;12.33;;;7.50;99.90;;;;;;5022107;28;20245;-63
2021/11/03 02:57:00;;;;;;;16.93;13.03;;;7.50;99.90;;;;;;5025389;28;20241;-63
2021/11/03 02:59:30;;;;;;;18.47;13.80;;;7.60;99.90;;;;;;5026683;28;20244;-63
2021/11/03 03:01:59;;;;;;;16.53;14.20;;;7.60;99.90;;;;;;5025819;28;20248;-63
2021/11/03 03:04:42;;;;;;;17.13;13.47;;;7.50;99.90;;;;;;5039668;28;20292;-63
2021/11/03 03:07:11;;;;;;;17.37;13.00;;;7.50;99.90;;;;;;5023414;28;20582;-63
2021/11/03 03:09:40;;;;;;;15.50;13.60;;;7.60;99.90;;;;;;5024638;28;20233;-63
2021/11/03 03:12:13;;;;;;;15.60;12.70;;;7.60;99.90;;;;;;5024326;28;20615;-63
2021/11/03 03:14:47;;;;;;;18.70;13.63;;;7.60;99.90;;;;;;5024530;28;20518;-63
2021/11/03 03:17:19;;;;;;;15.63;12.83;;;7.60;99.90;;;;;;5025149;28;20282;-64
2021/11/03 03:19:47;;;;;;;15.90;13.43;;;7.60;99.90;;;;;;5024846;28;20440;-63
2021/11/03 03:22:18;;;;;;;16.03;13.77;;;7.60;99.90;;;;;;5033172;28;20232;-63
2021/11/03 03:24:52;;;;;;;16.07;14.27;;;7.60;99.90;;;;;;5024450;28;20708;-64
2021/11/03 03:27:25;;;;;;;15.47;13.80;;;7.60;99.90;;;;;;5026809;28;20243;-63
2021/11/03 03:29:54;;;;;;;16.07;12.90;;;7.60;99.90;;;;;;5024950;28;20228;-63
2021/11/03 03:32:23;;;;;;;19.33;15.60;;;8.00;99.90;;;;;;5037777;28;20603;-63
2021/11/03 03:34:52;;;;;;;16.77;14.47;;;8.00;99.90;;;;;;5026311;28;20711;-63
2021/11/03 03:37:24;;;;;;;16.70;14.13;;;7.90;99.90;;;;;;5028887;28;20236;-63
2021/11/03 03:39:54;;;;;;;14.93;13.37;;;7.70;99.90;;;;;;5029029;28;20239;-63
2021/11/03 03:42:22;;;;;;;14.93;13.10;;;7.80;99.90;;;;;;5026484;28;20236;-64
2021/11/03 03:44:51;;;;;;;17.10;14.40;;;7.70;99.90;;;;;;5025320;28;20240;-63
2021/11/03 03:47:22;;;;;;;16.70;13.27;;;7.70;99.90;;;;;;5028901;28;20239;-62
2021/11/03 03:49:53;;;;;;;19.87;15.57;;;7.70;99.90;;;;;;5028279;28;20244;-63
2021/11/03 03:52:22;;;;;;;18.00;13.97;;;7.70;99.90;;;;;;5030179;28;20239;-63
2021/11/03 03:54:50;;;;;;;19.27;14.87;;;7.90;99.90;;;;;;5028929;28;20312;-63
2021/11/03 03:57:19;;;;;;;17.73;14.70;;;7.80;99.90;;;;;;5035812;28;20323;-64
2021/11/03 03:59:47;;;;;;;17.83;15.37;;;7.70;99.90;;;;;;5029744;28;20589;-63
2021/11/03 04:02:15;;;;;;;19.00;15.43;;;7.70;99.90;;;;;;5029738;28;20236;-63
2021/11/03 04:04:47;;;;;;;17.10;13.63;;;7.60;99.90;;;;;;5028348;28;20740;-63
2021/11/03 04:07:15;;;;;;;15.27;12.93;;;7.50;99.90;;;;;;5021867;28;20627;-63
2021/11/03 04:09:44;;;;;;;18.10;14.00;;;7.60;99.90;;;;;;5027953;28;20232;-63
2021/11/03 04:12:13;;;;;;;18.20;14.27;;;7.60;99.90;;;;;;5028083;28;20232;-63
2021/11/03 04:14:41;;;;;;;19.07;15.43;;;7.50;99.90;;;;;;5028289;28;20421;-64
2021/11/03 04:17:09;;;;;;;18.00;15.37;;;7.70;99.90;;;;;;5034000;28;20256;-63
2021/11/03 04:19:37;;;;;;;20.03;14.83;;;7.60;99.90;;;;;;5027936;28;20233;-63
2021/11/03 04:22:08;;;;;;;16.20;13.60;;;7.60;99.90;;;;;;5026756;28;20303;-63
2021/11/03 04:24:42;;;;;;;16.40;14.20;;;7.60;99.90;;;;;;5025022;28;20643;-63
2021/11/03 04:27:11;;;;;;;16.87;13.83;;;7.60;99.90;;;;;;5027275;28;20233;-63
2021/11/03 04:29:43;;;;;;;15.13;12.77;;;7.50;99.90;;;;;;5024587;28;20237;-63
2021/11/03 04:32:13;;;;;;;17.10;13.63;;;7.40;99.90;;;;;;5023680;28;20233;-63
2021/11/03 04:34:42;;;;;;;19.43;15.23;;;7.50;99.90;;;;;;5027937;28;20247;-63
2021/11/03 04:37:13;;;;;;;18.13;15.27;;;7.60;99.90;;;;;;5035659;28;20283;-63
2021/11/03 04:39:42;;;;;;;18.50;15.30;;;7.60;99.90;;;;;;5027179;28;20233;-64
2021/11/03 04:42:11;;;;;;;16.43;13.90;;;7.60;99.90;;;;;;5026110;28;20553;-64
2021/11/03 04:44:41;;;;;;;18.17;15.57;;;7.50;99.90;;;;;;5028559;28;20244;-63
2021/11/03 04:47:10;;;;;;;22.67;16.27;;;7.60;99.90;;;;;;5030724;28;20703;-63
2021/11/03 04:49:40;;;;;;;20.63;15.87;;;7.60;99.90;;;;;;5027805;28;20263;-63
2021/11/03 04:52:09;;;;;;;20.37;16.30;;;7.70;99.90;;;;;;5025972;28;20240;-63
2021/11/03 04:54:39;;;;;;;19.57;14.20;;;7.60;99.90;;;;;;5027307;28;20243;-63
2021/11/03 04:57:08;;;;;;;21.37;16.83;;;7.60;99.90;;;;;;5027806;28;20307;-64
2021/11/03 04:59:36;;;;;;;19.80;16.07;;;7.60;99.90;;;;;;5024369;28;20704;-65
2021/11/03 05:02:05;;;;;;;18.27;15.00;;;7.70;99.90;;;;;;5025210;28;20232;-64
2021/11/03 05:04:33;;;;;;;18.50;15.47;;;7.60;99.90;;;;;;5029024;28;20725;-64
2021/11/03 05:07:01;;;;;;;20.23;15.40;;;7.60;99.90;;;;;;5017115;28;20245;-64
2021/11/03 05:09:30;;;;;;;19.40;15.40;;;7.60;99.90;;;;;;5028514;28;20264;-63
2021/11/03 05:11:59;;;;;;;22.90;16.37;;;7.50;99.90;;;;;;5023762;28;20233;-64
2021/11/03 05:14:31;;;;;;;24.03;17.10;;;7.60;99.90;;;;;;5026494;28;20248;-64
2021/11/03 05:17:00;;;;;;;20.53;15.40;;;7.50;99.90;;;;;;5030322;28;20247;-64
2021/11/03 05:19:30;;;;;;;18.87;16.27;;;7.40;99.90;;;;;;5024880;28;20335;-64
2021/11/03 05:22:07;;;;;;;19.47;16.07;;;7.30;99.90;;;;;;5026468;28;20236;-64
2021/11/03 05:24:35;;;;;;;19.87;16.40;;;7.30;99.90;;;;;;5028585;28;20308;-64
2021/11/03 05:27:05;;;;;;;18.77;15.87;;;7.20;99.90;;;;;;5025692;28;20604;-64
2021/11/03 05:29:33;;;;;;;21.63;15.90;;;7.30;99.90;;;;;;5024306;28;21134;-64
2021/11/03 05:32:02;;;;;;;22.00;17.07;;;7.40;99.90;;;;;;5027864;28;20248;-64
2021/11/03 05:34:30;;;;;;;20.07;15.80;;;7.30;99.90;;;;;;5022647;28;20709;-64
2021/11/03 05:36:58;;;;;;;21.03;15.87;;;7.30;99.90;;;;;;5028586;28;20256;-63
2021/11/03 05:39:29;;;;;;;22.33;16.37;;;7.30;99.90;;;;;;5027867;28;20236;-64
2021/11/03 05:41:57;;;;;;;20.17;16.40;;;7.40;99.90;;;;;;5023961;28;20252;-63
2021/11/03 05:44:27;;;;;;;24.63;18.00;;;7.50;99.90;;;;;;5028140;28;20264;-64
2021/11/03 05:46:57;;;;;;;21.63;17.10;;;7.40;99.90;;;;;;5028402;28;20695;-63
2021/11/03 05:49:28;;;;;;;21.17;16.63;;;7.30;99.90;;;;;;5027913;28;20644;-64
2021/11/03 05:51:58;;;;;;;21.27;16.90;;;7.40;99.90;;;;;;5027631;28;20236;-63
2021/11/03 05:54:27;;;;;;;19.43;15.33;;;7.40;99.90;;;;;;5027866;28;20604;-63
2021/11/03 05:56:59;;;;;;;23.97;17.17;;;7.30;99.90;;;;;;5027668;28;20248;-64
2021/11/03 05:59:29;;;;;;;21.73;16.73;;;7.40;99.90;;;;;;5025102;28;20295;-63
2021/11/03 06:02:00;;;;;;;21.57;17.13;;;7.30;99.90;;;;;;5027520;28;20228;-63
2021/11/03 06:04:29;;;;;;;23.53;17.63;;;7.30;99.90;;;;;;5019884;28;20240;-63
2021/11/03 06:06:57;;;;;;;23.27;16.80;;;7.50;99.90;;;;;;5027692;28;20591;-64
2021/11/03 06:09:25;;;;;;;23.27;18.40;;;7.50;99.90;;;;;;5027126;28;20260;-64
2021/11/03 06:11:53;;;;;;;24.67;18.23;;;7.50;99.90;;;;;;5027541;28;20236;-64
2021/11/03 06:14:21;;;;;;;25.13;18.43;;;7.40;99.90;;;;;;5027604;28;20240;-64
2021/11/03 06:16:51;;;;;;;22.37;17.33;;;7.30;99.90;;;;;;5027657;28;20232;-63
2021/11/03 06:19:19;;;;;;;22.17;17.63;;;7.30;99.90;;;;;;5027357;28;20744;-64
2021/11/03 06:21:52;;;;;;;21.57;16.73;;;7.40;99.90;;;;;;5026900;28;20250;-64
2021/11/03 06:24:22;;;;;;;26.53;18.53;;;7.50;99.90;;;;;;5026653;28;20360;-63
2021/11/03 06:26:51;;;;;;;25.00;17.77;;;7.40;99.90;;;;;;5026738;28;20264;-63
2021/11/03 06:29:19;;;;;;;25.93;18.87;;;7.40;99.90;;;;;;5027158;28;20512;-64
2021/11/03 06:31:47;;;;;;;24.83;18.37;;;7.40;99.90;;;;;;5027106;28;20243;-64
2021/11/03 06:34:16;;;;;;;24.93;19.23;;;7.30;99.90;;;;;;5020004;28;20638;-64
2021/11/03 06:36:45;;;;;;;26.57;19.67;;;7.50;99.90;;;;;;5026978;28;20323;-64
2021/11/03 06:39:13;;;;;;;27.00;19.13;;;7.40;99.90;;;;;;5027017;28;20429;-64
2021/11/03 06:41:44;;;;;;;26.73;19.10;;;7.40;99.90;;;;;;5026529;28;20224;-63
2021/11/03 06:44:13;;;;;;;27.23;20.27;;;7.40;99.90;;;;;;5026071;28;20224;-65
2021/11/03 06:46:42;;;;;;;26.37;18.57;;;7.60;99.90;;;;;;5020940;28;20255;-64
2021/11/03 06:49:10;;;;;;;29.40;21.67;;;7.50;99.90;;;;;;5026423;28;20244;-64
2021/11/03 06:51:39;;;;;;;27.97;20.03;;;7.50;99.90;;;;;;5026897;28;20241;-64
2021/11/03 06:54:08;;;;;;;27.47;20.30;;;7.40;99.90;;;;;;5026019;28;20307;-63
2021/11/03 06:56:37;;;;;;;28.63;20.83;;;7.50;99.90;;;;;;5026596;28;20327;-64
2021/11/03 06:59:07;;;;;;;30.40;20.87;;;7.40;99.90;;;;;;5027104;28;20952;-64
2021/11/03 07:01:36;;;;;;;29.23;20.90;;;7.40;99.90;;;;;;5026000;28;20323;-64
2021/11/03 07:04:05;;;;;;;25.63;19.80;;;7.40;99.90;;;;;;5025808;28;20251;-64
2021/11/03 07:06:34;;;;;;;29.00;20.53;;;7.40;99.90;;;;;;5026903;28;20666;-64
2021/11/03 07:09:04;;;;;;;29.80;20.90;;;7.30;99.90;;;;;;5026446;28;20240;-64
2021/11/03 07:11:33;;;;;;;29.73;21.33;;;7.40;99.90;;;;;;5027089;28;20530;-63
2021/11/03 07:14:01;;;;;;;27.93;21.43;;;7.30;99.90;;;;;;5025460;28;20278;-63
2021/11/03 07:16:29;;;;;;;29.93;20.97;;;7.30;99.90;;;;;;5018173;28;20240;-64
2021/11/03 07:18:57;;;;;;;29.43;21.63;;;7.30;99.90;;;;;;5023008;28;20236;-64
2021/11/03 07:21:25;;;;;;;29.93;20.47;;;7.30;99.90;;;;;;5025375;28;20237;-64
2021/11/03 07:23:53;;;;;;;30.17;21.90;;;7.40;99.90;;;;;;5026224;28;20229;-64
2021/11/03 07:26:23;;;;;;;29.30;20.80;;;7.40;99.90;;;;;;5025854;28;20242;-64
2021/11/03 07:28:52;;;;;;;31.70;22.10;;;7.50;99.90;;;;;;5024834;28;20259;-64
2021/11/03 07:31:21;;;;;;;29.53;21.60;;;7.50;99.90;;;;;;5026224;28;20227;-63
2021/11/03 07:33:49;;;;;;;28.47;20.73;;;7.40;99.90;;;;;;5026257;28;20229;-63
2021/11/03 07:36:20;;;;;;;32.27;22.23;;;7.40;99.90;;;;;;5024985;28;20233;-64
2021/11/03 07:38:50;;;;;;;33.60;23.17;;;7.50;99.90;;;;;;5026252;28;20324;-64
2021/11/03 07:41:35;;;;;;;33.17;22.53;;;7.50;99.90;;;;;;5017935;28;20240;-63
2021/11/03 07:44:04;;;;;;;32.07;23.70;;;7.50;99.90;;;;;;5025813;28;20247;-64
2021/11/03 07:46:33;;;;;;;31.13;22.87;;;7.50;99.90;;;;;;5026606;28;20801;-64
2021/11/03 07:49:02;;;;;;;30.87;22.60;;;7.60;99.90;;;;;;5015843;28;20236;-64
2021/11/03 07:51:30;;;;;;;30.97;21.93;;;7.60;99.90;;;;;;5009275;28;20258;-63
2021/11/03 07:53:59;;;;;;;33.13;22.97;;;7.60;99.90;;;;;;5007170;28;20236;-64
2021/11/03 08:04:48;;;;;;;35.30;24.37;;;7.80;99.90;;;;;;4970983;28;20245;-63
2021/11/03 08:07:16;;;;;;;37.10;25.00;;;7.80;99.90;;;;;;4969205;28;20325;-63
2021/11/03 08:09:46;;;;;;;41.57;26.60;;;7.80;99.90;;;;;;4971095;28;20883;-64
2021/11/03 08:12:16;;;;;;;41.27;27.93;;;7.80;99.90;;;;;;4971529;28;21750;-64
2021/11/03 08:14:44;;;;;;;41.13;27.27;;;7.80;99.90;;;;;;4970818;28;20605;-64
2021/11/03 08:17:17;;;;;;;39.80;26.63;;;7.80;99.90;;;;;;4968304;28;20836;-64
2021/11/03 08:19:54;;;;;;;41.60;26.23;;;7.90;99.90;;;;;;4970519;28;20238;-63
2021/11/03 08:22:24;;;;;;;38.27;26.47;;;7.90;99.90;;;;;;4973500;28;20353;-64
2021/11/03 08:24:54;;;;;;;38.03;26.97;;;8.00;99.90;;;;;;4974933;28;20657;-64
2021/11/03 08:27:23;;;;;;;39.87;26.63;;;8.00;99.90;;;;;;4972837;28;20710;-65
2021/11/03 08:29:52;;;;;;;42.27;26.37;;;8.10;99.90;;;;;;4974982;28;20288;-64
2021/11/03 08:32:24;;;;;;;43.03;28.53;;;8.20;99.90;;;;;;4974898;28;20313;-64
2021/11/03 08:34:54;;;;;;;40.60;27.37;;;8.20;99.90;;;;;;4974916;28;20671;-64
2021/11/03 08:37:29;;;;;;;40.40;28.10;;;8.30;99.90;;;;;;4971843;28;20304;-63
2021/11/03 08:39:59;;;;;;;41.00;27.47;;;8.20;99.90;;;;;;4973997;28;20273;-64
2021/11/03 08:42:29;;;;;;;41.30;27.97;;;8.20;99.90;;;;;;4974796;28;20238;-64
2021/11/03 08:44:57;;;;;;;45.30;29.43;;;8.20;99.90;;;;;;4974413;28;20601;-64
2021/11/03 08:47:25;;;;;;;43.80;29.67;;;8.20;99.90;;;;;;4971353;28;20801;-64
2021/11/03 08:49:55;;;;;;;44.73;28.33;;;8.30;99.90;;;;;;4973817;28;20341;-64
2021/11/03 08:52:23;;;;;;;46.37;30.13;;;8.30;99.90;;;;;;4973804;28;20242;-64
2021/11/03 08:54:52;;;;;;;46.93;30.63;;;8.30;99.90;;;;;;4975168;28;20839;-64
2021/11/03 08:57:24;;;;;;;45.83;30.47;;;8.40;99.90;;;;;;4971791;28;20241;-64
2021/11/03 08:59:55;;;;;;;43.77;29.23;;;8.40;99.90;;;;;;4974205;28;20799;-64
2021/11/03 09:02:27;;;;;;;46.30;30.90;;;8.50;99.90;;;;;;4974566;28;20241;-64
2021/11/03 09:04:56;;;;;;;47.23;31.27;;;8.40;99.90;;;;;;5013767;28;20236;-63
2021/11/03 09:07:25;;;;;;;48.90;31.77;;;8.40;99.90;;;;;;5010688;28;20237;-64
2021/11/03 09:09:53;;;;;;;47.90;31.80;;;8.40;99.90;;;;;;5012971;28;20241;-64
2021/11/03 09:12:21;;;;;;;48.37;32.13;;;8.40;99.90;;;;;;5013309;28;20732;-64
2021/11/03 09:14:49;;;;;;;45.70;30.67;;;8.50;99.90;;;;;;5013554;28;20735;-64
2021/11/03 09:17:18;;;;;;;49.83;32.70;;;8.50;99.90;;;;;;5011184;28;20268;-64
2021/11/03 09:19:46;;;;;;;52.87;32.97;;;8.50;99.90;;;;;;5012680;28;20244;-64
2021/11/03 09:22:15;;;;;;;52.30;30.47;;;8.60;99.90;;;;;;5012535;28;20268;-64
2021/11/03 09:24:43;;;;;;;51.00;33.20;;;8.70;99.90;;;;;;5012028;28;20238;-64
2021/11/03 09:27:14;;;;;;;48.67;32.37;;;8.70;99.90;;;;;;5011025;28;20355;-64
2021/11/03 09:29:45;;;;;;;48.83;31.50;;;8.60;99.90;;;;;;5012435;28;20251;-64
2021/11/03 09:32:18;;;;;;;52.13;33.53;;;8.70;99.90;;;;;;5010910;28;21720;-65
2021/11/03 09:34:47;;;;;;;49.73;32.57;;;8.70;99.90;;;;;;5011737;28;20233;-65
2021/11/03 09:37:25;;;;;;;53.80;35.20;;;8.80;99.90;;;;;;5009713;28;20692;-65
2021/11/03 09:39:55;;;;;;;50.90;32.23;;;8.80;99.90;;;;;;5010155;28;20357;-65
2021/11/03 09:42:26;;;;;;;53.50;34.63;;;8.90;99.90;;;;;;5011050;28;20233;-65
2021/11/03 09:44:56;;;;;;;52.70;33.67;;;8.90;99.90;;;;;;5011978;28;20243;-65
2021/11/03 09:47:27;;;;;;;53.73;35.47;;;8.90;99.90;;;;;;5008537;28;20361;-65
2021/11/03 09:50:01;;;;;;;54.63;35.13;;;8.90;99.90;;;;;;5011031;28;20244;-64
2021/11/03 09:52:37;;;;;;;53.10;34.13;;;8.90;99.90;;;;;;5010938;28;20241;-64
2021/11/03 09:55:20;;;;;;;51.90;32.87;;;8.90;99.90;;;;;;5011037;28;20235;-65
2021/11/03 09:57:56;;;;;;;51.23;34.50;;;9.00;99.90;;;;;;5010599;28;20326;-64
2021/11/03 10:00:34;;;;;;;51.93;34.67;;;9.00;99.90;;;;;;5010059;28;20239;-65
2021/11/03 10:03:18;;;;;;;54.53;34.67;;;9.10;99.90;;;;;;5023170;28;20334;-64
2021/11/03 10:05:49;;;;;;;53.13;35.77;;;9.10;99.90;;;;;;5025151;28;20561;-65
2021/11/03 10:08:22;;;;;;;53.43;34.77;;;9.20;99.90;;;;;;5024287;28;20310;-64
2021/11/03 10:10:54;;;;;;;50.67;35.03;;;9.20;99.90;;;;;;5023221;28;20576;-64
2021/11/03 10:13:25;;;;;;;47.77;32.13;;;9.20;99.90;;;;;;5021555;28;20312;-65
2021/11/03 10:15:56;;;;;;;53.60;34.93;;;9.30;99.90;;;;;;5021826;28;20323;-64
2021/11/03 10:18:27;;;;;;;53.07;35.07;;;9.40;99.90;;;;;;5023971;28;20315;-65
2021/11/03 10:21:14;;;;;;;49.50;33.80;;;9.30;99.90;;;;;;5021618;28;20268;-64
2021/11/03 10:23:52;;;;;;;54.73;35.33;;;9.30;99.90;;;;;;5022537;28;20276;-64
2021/11/03 10:26:21;;;;;;;50.63;33.33;;;9.20;99.90;;;;;;5023806;28;20329;-64
2021/11/03 10:28:52;;;;;;;54.03;34.27;;;9.30;99.90;;;;;;5026039;28;20241;-64
2021/11/03 10:31:25;;;;;;;53.23;35.30;;;9.30;99.90;;;;;;5026169;28;20236;-64
2021/11/03 10:34:01;;;;;;;52.83;34.67;;;9.40;99.90;;;;;;5025391;28;20240;-64
2021/11/03 10:36:40;;;;;;;51.63;34.83;;;9.50;99.90;;;;;;5025748;28;20232;-64
2021/11/03 10:39:16;;;;;;;48.43;33.57;;;9.60;99.90;;;;;;5025630;28;20268;-64
2021/11/03 10:41:53;;;;;;;55.73;34.60;;;9.70;99.90;;;;;;5025426;28;20240;-64
2021/11/03 10:44:24;;;;;;;53.03;34.27;;;9.70;99.90;;;;;;5024340;28;20267;-64
2021/11/03 10:46:55;;;;;;;46.63;31.50;;;9.70;99.90;;;;;;5025307;28;20348;-64
2021/11/03 10:52:20;;;;;;;47.30;30.40;;;9.80;99.90;;;;;;5023052;28;20319;-65
2021/11/03 10:54:55;;;;;;;48.93;32.10;;;10.00;99.90;;;;;;5019921;28;20494;-64
2021/11/03 10:57:29;;;;;;;48.20;32.20;;;10.10;99.90;;;;;;5025591;28;20321;-64
2021/11/03 11:00:05;;;;;;;51.40;34.20;;;10.20;99.90;;;;;;5021130;28;20573;-64
2021/11/03 11:03:01;;;;;;;44.40;30.53;;;10.20;99.90;;;;;;5024001;28;20228;-64
2021/11/03 11:05:32;;;;;;;41.23;29.00;;;10.30;99.90;;;;;;5024386;28;20642;-64
2021/11/03 11:08:06;;;;;;;44.17;29.03;;;10.40;99.90;;;;;;5025603;28;20446;-65
2021/11/03 11:10:43;;;;;;;43.10;30.43;;;10.30;99.90;;;;;;5024259;28;20236;-65
2021/11/03 11:13:19;;;;;;;43.13;29.33;;;10.40;99.90;;;;;;5025473;28;20282;-64
2021/11/03 11:15:56;;;;;;;44.37;30.27;;;10.50;99.90;;;;;;5024953;28;20236;-65
2021/11/03 11:18:53;;;;;;;41.47;28.13;;;10.60;99.90;;;;;;5024058;28;20244;-65
2021/11/03 11:21:35;;;;;;;41.97;28.00;;;10.70;99.90;;;;;;5011505;28;20236;-65
2021/11/03 11:24:11;;;;;;;41.77;28.47;;;10.70;99.90;;;;;;5024558;28;20232;-65
2021/11/03 11:26:47;;;;;;;40.30;28.10;;;10.70;99.90;;;;;;5025261;28;20239;-64
2021/11/03 11:29:23;;;;;;;45.00;29.87;;;10.60;99.90;;;;;;5023322;28;20653;-65
2021/11/03 11:32:00;;;;;;;43.97;29.17;;;10.60;99.90;;;;;;5024697;28;20286;-65
2021/11/03 11:34:55;;;;;;;41.73;30.03;;;10.50;99.90;;;;;;5025210;28;20716;-64
2021/11/03 11:37:32;;;;;;;40.27;28.57;;;10.50;99.90;;;;;;5017997;28;20243;-65
2021/11/03 11:40:17;;;;;;;39.43;27.57;;;10.50;99.90;;;;;;5020258;28;20271;-64
2021/11/03 11:42:53;;;;;;;39.93;27.60;;;10.60;99.90;;;;;;5021517;28;20362;-65
2021/11/03 11:45:26;;;;;;;39.70;28.50;;;10.50;99.90;;;;;;5021421;28;20244;-65
2021/11/03 11:47:58;;;;;;;37.30;27.53;;;10.50;99.90;;;;;;5021126;28;20316;-64
2021/11/03 11:50:38;;;;;;;38.87;27.90;;;10.60;99.90;;;;;;5020991;28;20324;-65
2021/11/03 11:53:22;;;;;;;36.90;27.13;;;10.70;99.90;;;;;;5021776;28;20723;-65
2021/11/03 11:56:13;;;;;;;37.13;27.60;;;10.80;99.90;;;;;;5021798;28;20733;-65
2021/11/03 11:58:43;;;;;;;33.93;25.90;;;10.80;99.90;;;;;;5024911;28;20236;-65
2021/11/03 12:01:33;;;;;;;33.83;25.27;;;10.80;99.90;;;;;;5024342;28;20335;-64
2021/11/03 12:04:33;;;;;;;34.67;25.70;;;10.80;99.90;;;;;;5024215;28;20232;-64
2021/11/03 12:07:22;;;;;;;35.97;24.60;;;10.80;99.90;;;;;;5024637;28;20261;-65
2021/11/03 12:10:15;;;;;;;33.30;23.67;;;10.80;99.90;;;;;;5022499;28;20582;-65
2021/11/03 12:13:27;;;;;;;34.17;24.80;;;10.80;99.90;;;;;;5023953;28;20632;-64
2021/11/03 12:16:20;;;;;;;32.47;24.37;;;10.80;99.90;;;;;;5024013;28;20264;-64
2021/11/03 12:18:54;;;;;;;32.03;24.60;;;10.80;99.90;;;;;;5024426;28;20256;-64
2021/11/03 12:21:58;;;;;;;33.67;25.70;;;10.80;99.90;;;;;;5004667;28;21727;-65
2021/11/03 12:24:37;;;;;;;31.60;23.63;;;10.80;99.90;;;;;;5014812;28;20300;-65
2021/11/03 12:27:36;;;;;;;31.80;23.47;;;10.80;99.90;;;;;;5009501;28;20306;-65
2021/11/03 12:30:41;;;;;;;34.73;24.30;;;10.80;99.90;;;;;;5009389;28;20357;-65
2021/11/03 12:33:13;;;;;;;30.73;23.60;;;10.80;99.90;;;;;;5013610;28;20324;-65
2021/11/03 12:35:59;;;;;;;30.83;23.23;;;10.80;99.90;;;;;;5009729;28;20326;-64
2021/11/03 12:38:48;;;;;;;29.90;21.97;;;10.80;99.90;;;;;;5012380;28;20346;-65
2021/11/03 12:41:40;;;;;;;30.03;22.77;;;10.80;99.90;;;;;;5012232;28;20747;-64
2021/11/03 12:44:15;;;;;;;28.63;21.83;;;10.70;99.90;;;;;;5011021;28;20237;-64
2021/11/03 12:46:44;;;;;;;28.90;22.50;;;10.80;99.90;;;;;;5013167;28;20276;-64
2021/11/03 12:49:20;;;;;;;26.07;20.73;;;10.80;99.90;;;;;;5013647;28;20702;-65
2021/11/03 12:51:55;;;;;;;32.80;23.87;;;10.80;99.90;;;;;;5013078;28;20246;-65
2021/11/03 12:54:26;;;;;;;26.30;20.17;;;10.80;99.90;;;;;;5010634;28;20338;-64
2021/11/03 12:57:00;;;;;;;31.43;22.83;;;10.80;99.90;;;;;;5014043;28;20248;-64
2021/11/03 12:59:31;;;;;;;27.90;21.50;;;10.80;99.90;;;;;;5012850;28;20252;-65
2021/11/03 13:02:02;;;;;;;26.73;21.20;;;10.80;99.90;;;;;;5012509;28;20260;-64
2021/11/03 13:04:34;;;;;;;26.83;20.03;;;10.80;99.90;;;;;;5010514;28;20285;-65
2021/11/03 13:07:05;;;;;;;27.87;20.10;;;10.80;99.90;;;;;;5012764;28;20248;-65
2021/11/03 13:09:36;;;;;;;23.70;19.90;;;10.80;99.90;;;;;;5010795;28;20321;-65
2021/11/03 13:12:06;;;;;;;22.73;19.03;;;10.80;99.90;;;;;;5011650;28;20655;-65